sensor_id;sensor_type;location;lat;lon;timestamp;temperature;humidity
37896;DHT22;23733;53.254;10.430;2023-02-28T00:00:34;0.30;99.90
37896;DHT22;23733;53.254;10.430;2023-02-28T00:03:02;0.30;99.90
37896;DHT22;23733;53.254;10.430;2023-02-28T00:05:29;0.20;99.90
37896;DHT22;23733;53.254;10.430;2023-02-28T00:07:55;0.20;99.90
37896;DHT22;23733;53.254;10.430;2023-02-28T00:10:24;0.20;99.90
37896;DHT22;23733;53.254;10.430;2023-02-28T00:12:51;0.20;99.90
37896;DHT22;23733;53.254;10.430;2023-02-28T00:15:17;0.20;99.90
37896;DHT22;23733;53.254;10.430;2023-02-28T00:17:44;0.30;99.90
37896;DHT22;23733;53.254;10.430;2023-02-28T00:20:11;0.30;99.90
37896;DHT22;23733;53.254;10.430;2023-02-28T00:22:44;0.20;99.90
37896;DHT22;23733;53.254;10.430;2023-02-28T00:25:11;0.20;99.90
37896;DHT22;23733;53.254;10.430;2023-02-28T00:27:39;0.20;99.90
37896;DHT22;23733;53.254;10.430;2023-02-28T00:30:07;0.20;99.90
37896;DHT22;23733;53.254;10.430;2023-02-28T00:32:38;0.20;99.90
37896;DHT22;23733;53.254;10.430;2023-02-28T00:35:05;0.20;99.90
37896;DHT22;23733;53.254;10.430;2023-02-28T00:37:31;0.20;99.90
37896;DHT22;23733;53.254;10.430;2023-02-28T00:39:57;0.20;99.90
37896;DHT22;23733;53.254;10.430;2023-02-28T00:42:24;0.20;99.90
37896;DHT22;23733;53.254;10.430;2023-02-28T00:44:50;0.10;99.90
37896;DHT22;23733;53.254;10.430;2023-02-28T00:47:16;0.10;99.90
37896;DHT22;23733;53.254;10.430;2023-02-28T00:49:43;0.10;99.90
37896;DHT22;23733;53.254;10.430;2023-02-28T00:52:09;0.00;99.90
37896;DHT22;23733;53.254;10.430;2023-02-28T00:54:35;0.10;99.90
37896;DHT22;23733;53.254;10.430;2023-02-28T00:57:01;0.00;99.90
37896;DHT22;23733;53.254;10.430;2023-02-28T00:59:30;0.00;99.90
37896;DHT22;23733;53.254;10.430;2023-02-28T01:01:58;-0.10;99.90
37896;DHT22;23733;53.254;10.430;2023-02-28T01:04:24;-0.10;99.90
37896;DHT22;23733;53.254;10.430;2023-02-28T01:06:50;-0.10;99.90
37896;DHT22;23733;53.254;10.430;2023-02-28T01:09:18;-0.10;99.90
37896;DHT22;23733;53.254;10.430;2023-02-28T01:11:44;-0.10;99.90
37896;DHT22;23733;53.254;10.430;2023-02-28T01:14:13;-0.10;99.90
37896;DHT22;23733;53.254;10.430;2023-02-28T01:16:40;-0.10;99.90
37896;DHT22;23733;53.254;10.430;2023-02-28T01:19:09;-0.10;99.90
37896;DHT22;23733;53.254;10.430;2023-02-28T01:21:35;-0.20;99.90
37896;DHT22;23733;53.254;10.430;2023-02-28T01:24:03;-0.20;99.90
37896;DHT22;23733;53.254;10.430;2023-02-28T01:26:29;-0.20;99.90
37896;DHT22;23733;53.254;10.430;2023-02-28T01:28:55;-0.20;99.90
37896;DHT22;23733;53.254;10.430;2023-02-28T01:31:22;-0.30;99.90
37896;DHT22;23733;53.254;10.430;2023-02-28T01:33:49;-0.30;99.90
37896;DHT22;23733;53.254;10.430;2023-02-28T01:38:46;-0.40;99.90
37896;DHT22;23733;53.254;10.430;2023-02-28T01:41:19;-0.40;99.90
37896;DHT22;23733;53.254;10.430;2023-02-28T01:46:14;-0.40;99.90
37896;DHT22;23733;53.254;10.430;2023-02-28T01:48:48;-0.40;99.90
37896;DHT22;23733;53.254;10.430;2023-02-28T01:51:21;-0.40;99.90
37896;DHT22;23733;53.254;10.430;2023-02-28T01:53:52;-0.40;99.90
37896;DHT22;23733;53.254;10.430;2023-02-28T01:56:22;-0.40;99.90
37896;DHT22;23733;53.254;10.430;2023-02-28T01:58:50;-0.40;99.90
37896;DHT22;23733;53.254;10.430;2023-02-28T02:01:18;-0.40;99.90
37896;DHT22;23733;53.254;10.430;2023-02-28T02:03:54;-0.40;99.90
37896;DHT22;23733;53.254;10.430;2023-02-28T02:06:37;-0.40;99.90
37896;DHT22;23733;53.254;10.430;2023-02-28T02:09:04;-0.50;99.90
37896;DHT22;23733;53.254;10.430;2023-02-28T02:11:30;-0.50;99.90
37896;DHT22;23733;53.254;10.430;2023-02-28T02:14:26;-0.50;99.90
37896;DHT22;23733;53.254;10.430;2023-02-28T02:25:19;-0.60;99.90
37896;DHT22;23733;53.254;10.430;2023-02-28T02:28:54;-0.50;99.90
37896;DHT22;23733;53.254;10.430;2023-02-28T02:31:05;-0.50;99.90
37896;DHT22;23733;53.254;10.430;2023-02-28T02:34:06;-0.60;99.90
37896;DHT22;23733;53.254;10.430;2023-02-28T02:36:49;-0.60;99.90
37896;DHT22;23733;53.254;10.430;2023-02-28T02:39:48;-0.60;99.90
37896;DHT22;23733;53.254;10.430;2023-02-28T02:42:54;-0.60;99.90
37896;DHT22;23733;53.254;10.430;2023-02-28T02:45:40;-0.60;99.90
37896;DHT22;23733;53.254;10.430;2023-02-28T02:48:13;-0.60;99.90
37896;DHT22;23733;53.254;10.430;2023-02-28T02:50:49;-0.60;99.90
37896;DHT22;23733;53.254;10.430;2023-02-28T02:53:19;-0.60;99.90
37896;DHT22;23733;53.254;10.430;2023-02-28T02:55:50;-0.70;99.90
37896;DHT22;23733;53.254;10.430;2023-02-28T02:58:24;-0.70;99.90
37896;DHT22;23733;53.254;10.430;2023-02-28T03:00:54;-0.70;99.90
37896;DHT22;23733;53.254;10.430;2023-02-28T03:03:23;-0.70;99.90
37896;DHT22;23733;53.254;10.430;2023-02-28T03:05:57;-0.70;99.90
37896;DHT22;23733;53.254;10.430;2023-02-28T03:08:24;-0.70;99.90
37896;DHT22;23733;53.254;10.430;2023-02-28T03:11:01;-0.80;99.90
37896;DHT22;23733;53.254;10.430;2023-02-28T03:14:11;-0.70;99.90
37896;DHT22;23733;53.254;10.430;2023-02-28T03:19:54;-0.80;99.90
37896;DHT22;23733;53.254;10.430;2023-02-28T03:22:43;-0.80;99.90
37896;DHT22;23733;53.254;10.430;2023-02-28T03:25:25;-0.80;99.90
37896;DHT22;23733;53.254;10.430;2023-02-28T03:28:18;-0.80;99.90
37896;DHT22;23733;53.254;10.430;2023-02-28T03:30:48;-0.90;99.90
37896;DHT22;23733;53.254;10.430;2023-02-28T03:33:35;-0.90;99.90
37896;DHT22;23733;53.254;10.430;2023-02-28T03:36:09;-0.90;99.90
37896;DHT22;23733;53.254;10.430;2023-02-28T03:38:46;-0.90;99.90
37896;DHT22;23733;53.254;10.430;2023-02-28T03:41:20;-0.90;99.90
37896;DHT22;23733;53.254;10.430;2023-02-28T03:43:53;-0.90;99.90
37896;DHT22;23733;53.254;10.430;2023-02-28T03:46:23;-1.00;99.90
37896;DHT22;23733;53.254;10.430;2023-02-28T03:49:07;-1.00;99.90
37896;DHT22;23733;53.254;10.430;2023-02-28T03:51:35;-1.00;99.90
37896;DHT22;23733;53.254;10.430;2023-02-28T03:54:19;-1.00;99.90
37896;DHT22;23733;53.254;10.430;2023-02-28T03:59:32;-1.00;99.90
37896;DHT22;23733;53.254;10.430;2023-02-28T04:02:05;-1.00;99.90
37896;DHT22;23733;53.254;10.430;2023-02-28T04:04:31;-1.10;99.90
37896;DHT22;23733;53.254;10.430;2023-02-28T04:07:09;-1.10;99.90
37896;DHT22;23733;53.254;10.430;2023-02-28T04:09:36;-1.10;99.90
37896;DHT22;23733;53.254;10.430;2023-02-28T04:12:03;-1.10;99.90
37896;DHT22;23733;53.254;10.430;2023-02-28T04:14:29;-1.10;99.90
37896;DHT22;23733;53.254;10.430;2023-02-28T04:16:55;-1.10;99.90
37896;DHT22;23733;53.254;10.430;2023-02-28T04:19:21;-1.10;99.90
37896;DHT22;23733;53.254;10.430;2023-02-28T04:21:49;-1.10;99.90
37896;DHT22;23733;53.254;10.430;2023-02-28T04:24:20;-1.20;99.90
37896;DHT22;23733;53.254;10.430;2023-02-28T04:26:49;-1.20;99.90
37896;DHT22;23733;53.254;10.430;2023-02-28T04:29:20;-1.20;99.90
37896;DHT22;23733;53.254;10.430;2023-02-28T04:31:47;-1.30;99.90
37896;DHT22;23733;53.254;10.430;2023-02-28T04:34:13;-1.30;99.90
37896;DHT22;23733;53.254;10.430;2023-02-28T04:36:39;-1.40;99.90
37896;DHT22;23733;53.254;10.430;2023-02-28T04:39:09;-1.30;99.90
37896;DHT22;23733;53.254;10.430;2023-02-28T04:41:35;-1.30;99.90
37896;DHT22;23733;53.254;10.430;2023-02-28T04:44:01;-1.30;99.90
37896;DHT22;23733;53.254;10.430;2023-02-28T04:46:27;-1.40;99.90
37896;DHT22;23733;53.254;10.430;2023-02-28T04:48:53;-1.40;99.90
37896;DHT22;23733;53.254;10.430;2023-02-28T04:51:20;-1.40;99.90
37896;DHT22;23733;53.254;10.430;2023-02-28T04:53:46;-1.40;99.90
37896;DHT22;23733;53.254;10.430;2023-02-28T04:56:14;-1.30;99.90
37896;DHT22;23733;53.254;10.430;2023-02-28T04:58:41;-1.30;99.90
37896;DHT22;23733;53.254;10.430;2023-02-28T05:01:17;-1.30;99.90
37896;DHT22;23733;53.254;10.430;2023-02-28T05:03:44;-1.40;99.90
37896;DHT22;23733;53.254;10.430;2023-02-28T05:06:11;-1.40;99.90
37896;DHT22;23733;53.254;10.430;2023-02-28T05:08:38;-1.40;99.90
37896;DHT22;23733;53.254;10.430;2023-02-28T05:11:07;-1.40;99.90
37896;DHT22;23733;53.254;10.430;2023-02-28T05:13:34;-1.50;99.90
37896;DHT22;23733;53.254;10.430;2023-02-28T05:16:01;-1.50;99.90
37896;DHT22;23733;53.254;10.430;2023-02-28T05:18:27;-1.50;99.90
37896;DHT22;23733;53.254;10.430;2023-02-28T05:20:53;-1.50;99.90
37896;DHT22;23733;53.254;10.430;2023-02-28T05:23:20;-1.60;99.90
37896;DHT22;23733;53.254;10.430;2023-02-28T05:25:48;-1.60;99.90
37896;DHT22;23733;53.254;10.430;2023-02-28T05:28:14;-1.60;99.90
37896;DHT22;23733;53.254;10.430;2023-02-28T05:30:40;-1.60;99.90
37896;DHT22;23733;53.254;10.430;2023-02-28T05:33:06;-1.60;99.90
37896;DHT22;23733;53.254;10.430;2023-02-28T05:35:38;-1.60;99.90
37896;DHT22;23733;53.254;10.430;2023-02-28T05:38:04;-1.60;99.90
37896;DHT22;23733;53.254;10.430;2023-02-28T05:40:33;-1.60;99.90
37896;DHT22;23733;53.254;10.430;2023-02-28T05:43:02;-1.60;99.90
37896;DHT22;23733;53.254;10.430;2023-02-28T05:45:28;-1.50;99.90
37896;DHT22;23733;53.254;10.430;2023-02-28T05:47:55;-1.50;99.90
37896;DHT22;23733;53.254;10.430;2023-02-28T05:50:27;-1.50;99.90
37896;DHT22;23733;53.254;10.430;2023-02-28T05:52:53;-1.50;99.90
37896;DHT22;23733;53.254;10.430;2023-02-28T05:55:19;-1.50;99.90
37896;DHT22;23733;53.254;10.430;2023-02-28T05:57:45;-1.50;99.90
37896;DHT22;23733;53.254;10.430;2023-02-28T06:00:17;-1.60;99.90
37896;DHT22;23733;53.254;10.430;2023-02-28T06:02:44;-1.60;99.90
37896;DHT22;23733;53.254;10.430;2023-02-28T06:05:15;-1.60;99.90
37896;DHT22;23733;53.254;10.430;2023-02-28T06:07:42;-1.60;99.90
37896;DHT22;23733;53.254;10.430;2023-02-28T06:10:10;-1.60;99.90
37896;DHT22;23733;53.254;10.430;2023-02-28T06:12:36;-1.70;99.90
37896;DHT22;23733;53.254;10.430;2023-02-28T06:15:03;-1.60;99.90
37896;DHT22;23733;53.254;10.430;2023-02-28T06:17:29;-1.70;99.90
37896;DHT22;23733;53.254;10.430;2023-02-28T06:20:01;-1.70;99.90
37896;DHT22;23733;53.254;10.430;2023-02-28T06:22:27;-1.70;99.90
37896;DHT22;23733;53.254;10.430;2023-02-28T06:24:53;-1.60;99.90
37896;DHT22;23733;53.254;10.430;2023-02-28T06:27:20;-1.70;99.90
37896;DHT22;23733;53.254;10.430;2023-02-28T06:29:55;-1.70;99.90
37896;DHT22;23733;53.254;10.430;2023-02-28T06:32:22;-1.70;99.90
37896;DHT22;23733;53.254;10.430;2023-02-28T06:34:48;-1.70;99.90
37896;DHT22;23733;53.254;10.430;2023-02-28T06:37:17;-1.70;99.90
37896;DHT22;23733;53.254;10.430;2023-02-28T06:39:46;-1.80;99.90
37896;DHT22;23733;53.254;10.430;2023-02-28T06:42:18;-1.80;99.90
37896;DHT22;23733;53.254;10.430;2023-02-28T06:44:44;-1.80;99.90
37896;DHT22;23733;53.254;10.430;2023-02-28T06:47:12;-1.80;99.90
37896;DHT22;23733;53.254;10.430;2023-02-28T06:49:41;-1.80;99.90
37896;DHT22;23733;53.254;10.430;2023-02-28T06:52:10;-1.80;99.90
37896;DHT22;23733;53.254;10.430;2023-02-28T06:54:52;-1.80;99.90
37896;DHT22;23733;53.254;10.430;2023-02-28T06:57:32;-1.80;99.90
37896;DHT22;23733;53.254;10.430;2023-02-28T06:59:59;-1.80;99.90
37896;DHT22;23733;53.254;10.430;2023-02-28T07:02:38;-1.80;99.90
37896;DHT22;23733;53.254;10.430;2023-02-28T07:05:05;-1.70;99.90
37896;DHT22;23733;53.254;10.430;2023-02-28T07:07:48;-1.70;99.90
37896;DHT22;23733;53.254;10.430;2023-02-28T07:10:55;-1.70;99.90
37896;DHT22;23733;53.254;10.430;2023-02-28T07:13:22;-1.70;99.90
37896;DHT22;23733;53.254;10.430;2023-02-28T07:16:03;-1.60;99.90
37896;DHT22;23733;53.254;10.430;2023-02-28T07:18:29;-1.60;99.90
37896;DHT22;23733;53.254;10.430;2023-02-28T07:21:01;-1.50;99.90
37896;DHT22;23733;53.254;10.430;2023-02-28T07:24:03;-1.50;99.90
37896;DHT22;23733;53.254;10.430;2023-02-28T07:26:28;-1.50;99.90
37896;DHT22;23733;53.254;10.430;2023-02-28T07:28:57;-1.50;99.90
37896;DHT22;23733;53.254;10.430;2023-02-28T07:31:32;-1.50;99.90
37896;DHT22;23733;53.254;10.430;2023-02-28T07:37:08;-1.50;99.90
37896;DHT22;23733;53.254;10.430;2023-02-28T07:39:37;-1.40;99.90
37896;DHT22;23733;53.254;10.430;2023-02-28T07:42:06;-1.40;99.90
37896;DHT22;23733;53.254;10.430;2023-02-28T07:44:39;-1.40;99.90
37896;DHT22;23733;53.254;10.430;2023-02-28T07:47:09;-1.40;99.90
37896;DHT22;23733;53.254;10.430;2023-02-28T07:49:41;-1.40;99.90
37896;DHT22;23733;53.254;10.430;2023-02-28T07:52:13;-1.30;99.90
37896;DHT22;23733;53.254;10.430;2023-02-28T07:54:42;-1.30;99.90
37896;DHT22;23733;53.254;10.430;2023-02-28T07:57:11;-1.30;99.90
37896;DHT22;23733;53.254;10.430;2023-02-28T07:59:43;-1.20;99.90
37896;DHT22;23733;53.254;10.430;2023-02-28T08:02:14;-1.20;99.90
37896;DHT22;23733;53.254;10.430;2023-02-28T08:04:41;-1.20;99.90
37896;DHT22;23733;53.254;10.430;2023-02-28T08:07:07;-1.10;99.90
37896;DHT22;23733;53.254;10.430;2023-02-28T08:09:34;-1.10;99.90
37896;DHT22;23733;53.254;10.430;2023-02-28T08:12:00;-1.10;99.90
37896;DHT22;23733;53.254;10.430;2023-02-28T08:14:26;-1.00;99.90
37896;DHT22;23733;53.254;10.430;2023-02-28T08:16:52;-1.00;99.90
37896;DHT22;23733;53.254;10.430;2023-02-28T08:19:18;-0.90;99.90
37896;DHT22;23733;53.254;10.430;2023-02-28T08:21:44;-0.90;99.90
37896;DHT22;23733;53.254;10.430;2023-02-28T08:24:13;-0.90;99.90
37896;DHT22;23733;53.254;10.430;2023-02-28T08:26:39;-0.90;99.90
37896;DHT22;23733;53.254;10.430;2023-02-28T08:29:05;-0.90;99.90
37896;DHT22;23733;53.254;10.430;2023-02-28T08:31:31;-0.80;99.90
37896;DHT22;23733;53.254;10.430;2023-02-28T08:33:57;-0.80;99.90
37896;DHT22;23733;53.254;10.430;2023-02-28T08:36:25;-0.80;99.90
37896;DHT22;23733;53.254;10.430;2023-02-28T08:38:54;-0.80;99.90
37896;DHT22;23733;53.254;10.430;2023-02-28T08:41:20;-0.70;99.90
37896;DHT22;23733;53.254;10.430;2023-02-28T08:43:46;-0.70;99.90
37896;DHT22;23733;53.254;10.430;2023-02-28T08:46:13;-0.70;99.90
37896;DHT22;23733;53.254;10.430;2023-02-28T08:48:39;-0.70;99.90
37896;DHT22;23733;53.254;10.430;2023-02-28T08:51:12;-0.60;99.90
37896;DHT22;23733;53.254;10.430;2023-02-28T08:53:39;-0.60;99.90
37896;DHT22;23733;53.254;10.430;2023-02-28T08:56:10;-0.50;99.90
37896;DHT22;23733;53.254;10.430;2023-02-28T08:58:36;-0.50;99.90
37896;DHT22;23733;53.254;10.430;2023-02-28T09:01:20;-0.50;99.90
37896;DHT22;23733;53.254;10.430;2023-02-28T16:20:50;-0.50;99.90
37896;DHT22;23733;53.254;10.430;2023-02-28T16:23:16;4.50;99.90
37896;DHT22;23733;53.254;10.430;2023-02-28T16:25:51;4.50;99.90
37896;DHT22;23733;53.254;10.430;2023-02-28T16:28:29;4.50;99.90
37896;DHT22;23733;53.254;10.430;2023-02-28T16:31:19;4.40;99.90
37896;DHT22;23733;53.254;10.430;2023-02-28T16:33:51;4.40;99.90
37896;DHT22;23733;53.254;10.430;2023-02-28T16:36:39;4.40;99.90
37896;DHT22;23733;53.254;10.430;2023-02-28T16:39:30;4.40;99.90
37896;DHT22;23733;53.254;10.430;2023-02-28T16:45:21;4.30;99.90
37896;DHT22;23733;53.254;10.430;2023-02-28T16:54:23;4.20;99.90
37896;DHT22;23733;53.254;10.430;2023-02-28T16:57:24;4.20;99.90
37896;DHT22;23733;53.254;10.430;2023-02-28T16:59:59;4.20;99.90
37896;DHT22;23733;53.254;10.430;2023-02-28T17:02:28;4.10;99.90
37896;DHT22;23733;53.254;10.430;2023-02-28T17:04:58;4.10;99.90
37896;DHT22;23733;53.254;10.430;2023-02-28T17:10:36;4.10;99.90
37896;DHT22;23733;53.254;10.430;2023-02-28T17:13:32;4.00;99.90
37896;DHT22;23733;53.254;10.430;2023-02-28T17:22:32;4.00;99.90
37896;DHT22;23733;53.254;10.430;2023-02-28T17:25:37;3.90;99.90
37896;DHT22;23733;53.254;10.430;2023-02-28T17:28:15;3.90;99.90
37896;DHT22;23733;53.254;10.430;2023-02-28T17:30:43;3.80;99.90
37896;DHT22;23733;53.254;10.430;2023-02-28T17:33:12;3.80;99.90
37896;DHT22;23733;53.254;10.430;2023-02-28T17:35:38;3.80;99.90
37896;DHT22;23733;53.254;10.430;2023-02-28T17:38:18;3.80;99.90
37896;DHT22;23733;53.254;10.430;2023-02-28T17:40:44;3.70;99.90
37896;DHT22;23733;53.254;10.430;2023-02-28T17:43:16;3.70;99.90
37896;DHT22;23733;53.254;10.430;2023-02-28T17:45:45;3.70;99.90
37896;DHT22;23733;53.254;10.430;2023-02-28T17:48:11;3.70;99.90
37896;DHT22;23733;53.254;10.430;2023-02-28T17:50:38;3.60;99.90
37896;DHT22;23733;53.254;10.430;2023-02-28T17:53:24;3.60;99.90
37896;DHT22;23733;53.254;10.430;2023-02-28T17:56:11;3.50;99.90
37896;DHT22;23733;53.254;10.430;2023-02-28T17:58:37;3.50;99.90
37896;DHT22;23733;53.254;10.430;2023-02-28T18:01:07;3.60;99.90
37896;DHT22;23733;53.254;10.430;2023-02-28T18:03:46;3.50;99.90
37896;DHT22;23733;53.254;10.430;2023-02-28T18:06:34;3.50;99.90
37896;DHT22;23733;53.254;10.430;2023-02-28T18:09:22;3.50;99.90
37896;DHT22;23733;53.254;10.430;2023-02-28T18:11:57;3.40;99.90
37896;DHT22;23733;53.254;10.430;2023-02-28T18:47:20;3.50;99.90
37896;DHT22;23733;53.254;10.430;2023-02-28T18:49:55;3.00;99.90
37896;DHT22;23733;53.254;10.430;2023-02-28T18:52:26;2.90;99.90
37896;DHT22;23733;53.254;10.430;2023-02-28T18:54:52;2.90;99.90
37896;DHT22;23733;53.254;10.430;2023-02-28T18:57:18;2.90;99.90
37896;DHT22;23733;53.254;10.430;2023-02-28T18:59:44;2.90;99.90
37896;DHT22;23733;53.254;10.430;2023-02-28T19:02:10;2.80;99.90
37896;DHT22;23733;53.254;10.430;2023-02-28T19:04:40;2.70;99.90
37896;DHT22;23733;53.254;10.430;2023-02-28T19:07:12;2.60;99.90
37896;DHT22;23733;53.254;10.430;2023-02-28T19:10:16;2.60;99.90
37896;DHT22;23733;53.254;10.430;2023-02-28T19:12:50;2.60;99.90
37896;DHT22;23733;53.254;10.430;2023-02-28T19:15:16;2.60;99.90
37896;DHT22;23733;53.254;10.430;2023-02-28T19:17:42;2.60;99.90
37896;DHT22;23733;53.254;10.430;2023-02-28T19:20:09;2.40;99.90
37896;DHT22;23733;53.254;10.430;2023-02-28T19:22:35;2.40;99.90
37896;DHT22;23733;53.254;10.430;2023-02-28T19:25:23;2.40;99.90
37896;DHT22;23733;53.254;10.430;2023-02-28T19:30:58;2.50;99.90
37896;DHT22;23733;53.254;10.430;2023-02-28T19:33:42;2.50;99.90
37896;DHT22;23733;53.254;10.430;2023-02-28T19:36:28;2.40;99.90
37896;DHT22;23733;53.254;10.430;2023-02-28T19:39:07;2.40;99.90
37896;DHT22;23733;53.254;10.430;2023-02-28T19:41:33;2.30;99.90
37896;DHT22;23733;53.254;10.430;2023-02-28T19:44:08;2.30;99.90
37896;DHT22;23733;53.254;10.430;2023-02-28T19:46:37;2.40;99.90
37896;DHT22;23733;53.254;10.430;2023-02-28T19:49:14;2.40;99.90
37896;DHT22;23733;53.254;10.430;2023-02-28T19:52:13;2.40;99.90
37896;DHT22;23733;53.254;10.430;2023-02-28T19:54:39;2.30;99.90
37896;DHT22;23733;53.254;10.430;2023-02-28T19:57:14;2.10;99.90
37896;DHT22;23733;53.254;10.430;2023-02-28T19:59:51;2.20;99.90
37896;DHT22;23733;53.254;10.430;2023-02-28T20:02:22;2.00;99.90
37896;DHT22;23733;53.254;10.430;2023-02-28T20:04:49;1.90;99.90
37896;DHT22;23733;53.254;10.430;2023-02-28T20:07:17;1.90;99.90
37896;DHT22;23733;53.254;10.430;2023-02-28T20:10:29;1.90;99.90
37896;DHT22;23733;53.254;10.430;2023-02-28T20:13:00;2.00;99.90
37896;DHT22;23733;53.254;10.430;2023-02-28T20:15:32;2.00;99.90
37896;DHT22;23733;53.254;10.430;2023-02-28T20:18:04;2.00;99.90
37896;DHT22;23733;53.254;10.430;2023-02-28T20:20:57;2.00;99.90
37896;DHT22;23733;53.254;10.430;2023-02-28T20:23:23;1.90;99.90
37896;DHT22;23733;53.254;10.430;2023-02-28T20:26:04;1.90;99.90
37896;DHT22;23733;53.254;10.430;2023-02-28T20:28:37;1.90;99.90
37896;DHT22;23733;53.254;10.430;2023-02-28T20:34:24;1.90;99.90
37896;DHT22;23733;53.254;10.430;2023-02-28T20:36:50;1.80;99.90
37896;DHT22;23733;53.254;10.430;2023-02-28T20:39:16;1.80;99.90
37896;DHT22;23733;53.254;10.430;2023-02-28T20:41:42;1.70;99.90
37896;DHT22;23733;53.254;10.430;2023-02-28T20:44:17;1.60;99.90
37896;DHT22;23733;53.254;10.430;2023-02-28T20:46:44;1.60;99.90
37896;DHT22;23733;53.254;10.430;2023-02-28T20:49:10;1.60;99.90
37896;DHT22;23733;53.254;10.430;2023-02-28T20:51:36;1.60;99.90
37896;DHT22;23733;53.254;10.430;2023-02-28T20:54:08;1.50;99.90
37896;DHT22;23733;53.254;10.430;2023-02-28T20:56:36;1.60;99.90
37896;DHT22;23733;53.254;10.430;2023-02-28T20:59:05;1.60;99.90
37896;DHT22;23733;53.254;10.430;2023-02-28T21:01:34;1.50;99.90
37896;DHT22;23733;53.254;10.430;2023-02-28T21:04:02;1.50;99.90
37896;DHT22;23733;53.254;10.430;2023-02-28T21:06:32;1.50;99.90
37896;DHT22;23733;53.254;10.430;2023-02-28T21:08:59;1.40;99.90
37896;DHT22;23733;53.254;10.430;2023-02-28T21:11:30;1.50;99.90
37896;DHT22;23733;53.254;10.430;2023-02-28T21:14:10;1.50;99.90
37896;DHT22;23733;53.254;10.430;2023-02-28T21:16:40;1.40;99.90
37896;DHT22;23733;53.254;10.430;2023-02-28T21:19:06;1.40;99.90
37896;DHT22;23733;53.254;10.430;2023-02-28T21:21:37;1.40;99.90
37896;DHT22;23733;53.254;10.430;2023-02-28T21:24:04;1.40;99.90
37896;DHT22;23733;53.254;10.430;2023-02-28T21:26:33;1.50;99.90
37896;DHT22;23733;53.254;10.430;2023-02-28T21:29:00;1.40;99.90
37896;DHT22;23733;53.254;10.430;2023-02-28T21:31:29;1.30;99.90
37896;DHT22;23733;53.254;10.430;2023-02-28T21:34:00;1.30;99.90
37896;DHT22;23733;53.254;10.430;2023-02-28T21:36:28;1.20;99.90
37896;DHT22;23733;53.254;10.430;2023-02-28T21:39:07;1.20;99.90
37896;DHT22;23733;53.254;10.430;2023-02-28T21:41:37;1.10;99.90
37896;DHT22;23733;53.254;10.430;2023-02-28T21:44:03;1.20;99.90
37896;DHT22;23733;53.254;10.430;2023-02-28T21:46:32;1.20;99.90
37896;DHT22;23733;53.254;10.430;2023-02-28T21:48:58;1.20;99.90
37896;DHT22;23733;53.254;10.430;2023-02-28T21:51:27;1.10;99.90
37896;DHT22;23733;53.254;10.430;2023-02-28T21:53:59;1.10;99.90
37896;DHT22;23733;53.254;10.430;2023-02-28T21:56:28;1.10;99.90
37896;DHT22;23733;53.254;10.430;2023-02-28T21:59:00;1.00;99.90
37896;DHT22;23733;53.254;10.430;2023-02-28T22:01:29;0.80;99.90
37896;DHT22;23733;53.254;10.430;2023-02-28T22:03:56;0.70;99.90
37896;DHT22;23733;53.254;10.430;2023-02-28T22:06:28;0.60;99.90
37896;DHT22;23733;53.254;10.430;2023-02-28T22:08:57;0.70;99.90
37896;DHT22;23733;53.254;10.430;2023-02-28T22:11:25;0.80;99.90
37896;DHT22;23733;53.254;10.430;2023-02-28T22:13:52;0.80;99.90
37896;DHT22;23733;53.254;10.430;2023-02-28T22:16:21;0.80;99.90
37896;DHT22;23733;53.254;10.430;2023-02-28T22:18:47;0.80;99.90
37896;DHT22;23733;53.254;10.430;2023-02-28T22:21:14;0.80;99.90
37896;DHT22;23733;53.254;10.430;2023-02-28T22:23:42;0.80;99.90
37896;DHT22;23733;53.254;10.430;2023-02-28T22:26:11;0.90;99.90
37896;DHT22;23733;53.254;10.430;2023-02-28T22:28:38;0.90;99.90
37896;DHT22;23733;53.254;10.430;2023-02-28T22:31:19;0.90;99.90
37896;DHT22;23733;53.254;10.430;2023-02-28T22:33:49;0.80;99.90
37896;DHT22;23733;53.254;10.430;2023-02-28T22:36:19;0.80;99.90
37896;DHT22;23733;53.254;10.430;2023-02-28T22:38:47;0.80;99.90
37896;DHT22;23733;53.254;10.430;2023-02-28T22:41:13;0.80;99.90
37896;DHT22;23733;53.254;10.430;2023-02-28T22:43:41;0.80;99.90
37896;DHT22;23733;53.254;10.430;2023-02-28T22:46:09;0.80;99.90
37896;DHT22;23733;53.254;10.430;2023-02-28T22:48:35;0.80;99.90
37896;DHT22;23733;53.254;10.430;2023-02-28T22:51:11;0.70;99.90
37896;DHT22;23733;53.254;10.430;2023-02-28T22:53:38;0.60;99.90
37896;DHT22;23733;53.254;10.430;2023-02-28T22:56:05;0.50;99.90
37896;DHT22;23733;53.254;10.430;2023-02-28T22:58:31;0.30;99.90
37896;DHT22;23733;53.254;10.430;2023-02-28T23:01:10;0.20;99.90
37896;DHT22;23733;53.254;10.430;2023-02-28T23:03:36;0.10;99.90
37896;DHT22;23733;53.254;10.430;2023-02-28T23:06:27;0.20;99.90
37896;DHT22;23733;53.254;10.430;2023-02-28T23:08:57;0.20;99.90
37896;DHT22;23733;53.254;10.430;2023-02-28T23:11:31;0.30;99.90
37896;DHT22;23733;53.254;10.430;2023-02-28T23:13:57;0.30;99.90
37896;DHT22;23733;53.254;10.430;2023-02-28T23:16:25;0.30;99.90
37896;DHT22;23733;53.254;10.430;2023-02-28T23:18:52;0.30;99.90
37896;DHT22;23733;53.254;10.430;2023-02-28T23:21:18;0.30;99.90
37896;DHT22;23733;53.254;10.430;2023-02-28T23:23:44;0.30;99.90
37896;DHT22;23733;53.254;10.430;2023-02-28T23:26:10;0.30;99.90
37896;DHT22;23733;53.254;10.430;2023-02-28T23:28:36;0.30;99.90
37896;DHT22;23733;53.254;10.430;2023-02-28T23:31:03;0.20;99.90
37896;DHT22;23733;53.254;10.430;2023-02-28T23:33:30;0.20;99.90
37896;DHT22;23733;53.254;10.430;2023-02-28T23:35:56;0.20;99.90
37896;DHT22;23733;53.254;10.430;2023-02-28T23:38:22;0.20;99.90
37896;DHT22;23733;53.254;10.430;2023-02-28T23:40:48;0.20;99.90
37896;DHT22;23733;53.254;10.430;2023-02-28T23:43:14;0.20;99.90
37896;DHT22;23733;53.254;10.430;2023-02-28T23:45:40;0.30;99.90
37896;DHT22;23733;53.254;10.430;2023-02-28T23:48:11;0.30;99.90
37896;DHT22;23733;53.254;10.430;2023-02-28T23:50:39;0.30;99.90
37896;DHT22;23733;53.254;10.430;2023-02-28T23:53:05;0.30;99.90
37896;DHT22;23733;53.254;10.430;2023-02-28T23:55:32;0.30;99.90
37896;DHT22;23733;53.254;10.430;2023-02-28T23:57:58;0.30;99.90
